• Join FlightAware (Why Join?)
  • Login
  • US Flag 
03:56PM EST


 

Airport Tracker/Info


-or-


 

Live Flight TrackerFlight Track Log ✈ CCA1220 ✈ 04-Sep-2013 ✈ ZLIC / INC - ZBAA / PEK

Flight Track Log - Related Links

Times and Time Zones

All times are in EDT time to prevent confusion due to time zone crossing. See the CCA1220 flight status page for this flight to view local times or setup timezone preferences in your user account.

Time Position Orientation Groundspeed Altitude Reporting Facility
EDT Latitude Longitude Course Direction KTS MPH feet Rate Location/Type
05:15AM 38.4134 106.8070 74° East  Level Estimated
05:16AM 38.4358 106.9106 75° East  Level Estimated
05:17AM 38.4582 107.0142 75° East  Level Estimated
05:18AM 38.4804 107.1179 75° East  Level Estimated
05:19AM 38.5025 107.2217 75° East  Level Estimated
05:20AM 38.5246 107.3255 75° East  Level Estimated
05:21AM 38.5466 107.4294 75° East  Level Estimated
05:22AM 38.5685 107.5334 75° East  Level Estimated
05:23AM 38.5902 107.6374 75° East  Level Estimated
05:24AM 38.6119 107.7415 75° East  Level Estimated
05:25AM 38.6335 107.8456 75° East  Level Estimated
05:26AM 38.6550 107.9498 75° East  Level Estimated
05:27AM 38.6765 108.0541 75° East  Level Estimated
05:28AM 38.6978 108.1584 75° East  Level Estimated
05:29AM 38.7190 108.2628 75° East  Level Estimated
05:30AM 38.7402 108.3673 75° East  Level Estimated
05:31AM 38.7612 108.4718 75° East  Level Estimated
05:32AM 38.7822 108.5764 76° East  Level Estimated
05:33AM 38.8030 108.6810 76° East  Level Estimated
05:34AM 38.8238 108.7857 76° East  Level Estimated
05:35AM 38.8444 108.8905 76° East  Level Estimated
05:36AM 38.8650 108.9953 76° East  Level Estimated
05:37AM 38.8855 109.1002 76° East  Level Estimated
05:38AM 38.9059 109.2052 76° East  Level Estimated
05:39AM 38.9262 109.3102 76° East  Level Estimated
05:40AM 38.9464 109.4152 76° East  Level Estimated
05:41AM 38.9665 109.5204 76° East  Level Estimated
05:42AM 38.9865 109.6256 76° East  Level Estimated
05:43AM 39.0064 109.7308 76° East  Level Estimated
05:44AM 39.0262 109.8361 76° East  Level Estimated
05:45AM 39.0460 109.9415 76° East  Level Estimated
05:46AM 39.0656 110.0469 76° East  Level Estimated
05:47AM 39.0852 110.1524 77° East  Level Estimated
05:48AM 39.1046 110.2579 77° East  Level Estimated
05:49AM 39.1239 110.3635 77° East  Level Estimated
05:50AM 39.1432 110.4692 77° East  Level Estimated
05:51AM 39.1623 110.5749 77° East  Level Estimated
05:52AM 39.1814 110.6807 77° East  Level Estimated
05:53AM 39.2004 110.7865 77° East  Level Estimated
05:54AM 39.2192 110.8924 77° East  Level Estimated
05:55AM 39.2380 110.9983 77° East  Level Estimated
05:56AM 39.2567 111.1043 77° East  Level Estimated
05:57AM 39.2753 111.2104 77° East  Level Estimated
05:58AM 39.2938 111.3165 77° East  Level Estimated
05:59AM 39.3122 111.4226 77° East  Level Estimated
06:00AM 39.3305 111.5289 77° East  Level Estimated
06:01AM 39.3487 111.6351 77° East  Level Estimated
06:02AM 39.3668 111.7415 78° East  Level Estimated
06:03AM 39.3848 111.8479 78° East  Level Estimated
06:04AM 39.4027 111.9543 78° East  Level Estimated
06:05AM 39.4205 112.0608 78° East  Level Estimated
06:06AM 39.4382 112.1674 78° East  Level Estimated
06:07AM 39.4558 112.2740 78° East  Level Estimated
06:08AM 39.4733 112.3806 78° East  Level Estimated
06:09AM 39.4907 112.4873 78° East  Level Estimated
06:10AM 39.5081 112.5941 78° East  Level Estimated
06:11AM 39.5253 112.7009 78° East  Level Estimated
06:12AM 39.5424 112.8078 78° East  Level Estimated
06:13AM 39.5595 112.9147 78° East  Level Estimated
06:14AM 39.5764 113.0217 78° East  Level Estimated
06:15AM 39.5932 113.1287 78° East  Level Estimated
06:16AM 39.6100 113.2358 78° East  Level Estimated
06:17AM 39.6266 113.3429 79° East  Level Estimated
06:18AM 39.6431 113.4501 79° East  Level Estimated
06:19AM 39.6596 113.5574 79° East  Level Estimated
06:20AM 39.6759 113.6646 79° East  Level Estimated
06:20AM 40.3820 116.3390 79° East 365 420 13,400  Level FlightAware
06:21AM 39.6922 113.7720 79° East  Level Estimated
06:21AM 40.3730 116.4130 99° East 365 420 13,400  Level FlightAware
06:22AM 40.3620 116.4980 100° East 355 409 12,800 -540 Descending FlightAware
06:22AM 40.3550 116.5570 99° East 350 403 12,800  Level FlightAware
06:23AM 40.3470 116.6210 99° East 350 403 12,800  Level FlightAware
06:24AM 40.3390 116.6850 99° East 350 403 12,800 -1,620 Level FlightAware
06:26AM 40.1776 116.6223 197° South  Level Estimated
06:27AM 40.0969 116.5910 196° South  Level Estimated
06:28AM 40.0801 116.5846 196° South  Level Estimated
06:28AM 39.9660 116.7670 196° South 287 330 4,400  Level FlightAware
06:29AM 39.9310 116.7700 176° South 284 327 4,300 -780 Descending FlightAware
06:30AM 39.8500 116.7730 178° South 222 255 3,100 -1,080 Descending FlightAware
06:30AM 39.8250 116.7760 175° South 215 247 2,700 -780 Descending FlightAware
06:30AM 39.8100 116.7770 177° South 201 231 2,600 -360 Descending FlightAware
06:31AM 39.7970 116.7690 205° Southwest 189 217 2,500 -480 Descending FlightAware
06:31AM 39.7930 116.7620 233° Southwest 188 216 2,400 -240 Descending FlightAware
06:31AM 39.7830 116.7380 242° Southwest 188 216 2,400 -480 Level FlightAware
06:32AM 39.7900 116.7070 286° West 191 220 2,000 -480 Descending FlightAware
06:32AM 39.7950 116.6720 281° West 191 220 2,000  Level FlightAware
06:33AM 39.8270 116.6640 349° North 194 223 2,000  Level FlightAware
06:33AM 39.8360 116.6560 326° Northwest 194 223 2,000  Level FlightAware
06:33AM 39.8420 116.6520 333° Northwest 191 220 2,000  Level FlightAware
06:33AM 39.8590 116.6420 336° Northwest 191 220 2,000  Level FlightAware
06:34AM 39.8810 116.6450 North 187 215 2,000  Level FlightAware
06:34AM 39.8990 116.6430 355° North 181 208 2,000  Level FlightAware
06:34AM 39.9090 116.6410 351° North 180 207 2,000  Level FlightAware
06:35AM 39.9200 116.6390 352° North 180 207 2,000  Level FlightAware
06:35AM 39.9380 116.6370 355° North 180 207 2,000 -480 Level FlightAware
06:36AM 39.9880 116.6290 353° North 153 176 1,400 -660 Descending FlightAware
06:36AM 40.0020 116.6260 351° North 152 175 1,200 -720 Descending FlightAware
06:37AM 40.0130 116.6250 356° North 152 175 1,000 -300 Descending FlightAware
06:37AM 40.0290 116.6230 355° North 152 175 1,000  Level FlightAware
06:40AM 40.0801 116.5846 330° Northwest  Level Estimated
06:41AM 40.0801 116.5846 288° West  Level Estimated
06:42AM 40.0801 116.5846 288° West  Level Estimated
06:43AM 40.0801 116.5846 288° West  Level Estimated
06:44AM 40.0801 116.5846 288° West  Level Estimated
06:45AM 40.0801 116.5846 288° West  Level Estimated
06:46AM 40.0801 116.5846 288° West  Level Estimated
06:47AM 40.0801 116.5846 288° West  Level Estimated
06:48AM 40.0801 116.5846 288° West  Level Estimated
06:49AM 40.0801 116.5846 288° West  Level Estimated
06:50AM 40.0801 116.5846 288° West  Level Estimated
06:51AM 40.0801 116.5846 288° West  Level Estimated
06:52AM 40.0801 116.5846 288° West  Level Estimated
06:53AM 40.0801 116.5846 288° West  Level Estimated
06:54AM 40.0801 116.5846 288° West  Level Estimated
06:55AM 40.0801 116.5846 288° West  Level Estimated
06:56AM 40.0801 116.5846 288° West  Level Estimated
06:57AM 40.0801 116.5846 288° West  Level Estimated
06:58AM 40.0801 116.5846 288° West  Level Estimated
06:59AM 40.0801 116.5846 288° West  Level Estimated
07:00AM 40.0801 116.5846 288° West  Level Estimated
07:01AM 40.0801 116.5846 288° West  Level Estimated
07:02AM 40.0801 116.5846 288° West  Level Estimated
07:03AM 40.0801 116.5846 288° West  Level Estimated